Ar Chaden III — FGF5357 — position and weather

sailwx.info

Track history (hours):
 
Tides and Currents Weather Stations Pressure Air Temp Water Temp Dewpoint Dewpoint Depression Visibility Wind Speed Wind Dir Waves Ship Positions

Ar Chaden III

Last reported at 2017-Aug-27 20:10 UTC. Time now 2017-Sep-24 19:37 UTC.
Position N 48°36' W 002°49'.
Warning: this ship's position is 27 days out of date.

Length 12 m.

Type: Pleasure craft. MMSI: 227730430.

Date/timePositionNaut miles runAvg speedWind from/ knotsBaromVisibWave heightAir tempDewpointWater temp
2017-Aug-27 20:10N 48°36' W 002°49'0 2.1
2017-Aug-27 20:00N 48°36' W 002°49'4 5.8
2017-Aug-27 19:18N 48°40' W 002°50'3 6.1
2017-Aug-27 18:52N 48°43' W 002°52'3 6.0
2017-Aug-27 18:22N 48°45' W 002°54'3 6.2
2017-Aug-27 17:58N 48°47' W 002°56'3 5.1
2017-Aug-27 17:27N 48°49' W 002°58'2 0.1
2017-Aug-26 18:30N 48°50' W 003°01'4 5.8
2017-Aug-26 17:53N 48°54' W 003°02'  
2017-Aug-22 12:59N 48°35' W 004°46'4 7.8
2017-Aug-22 12:26N 48°31' W 004°49'3 6.6
2017-Aug-22 12:00N 48°29' W 004°49'8 7.8
2017-Aug-22 10:58N 48°21' W 004°48'2 4.9
2017-Aug-22 10:30N 48°19' W 004°45'2 4.8
2017-Aug-22 10:00N 48°18' W 004°42'3 6.1
2017-Aug-22 09:31N 48°18' W 004°37'2 3.2
2017-Aug-22 09:01N 48°17' W 004°35'0 0.1
2017-Aug-22 08:29N 48°17' W 004°35'0 0.0
2017-Aug-22 07:59N 48°17' W 004°35'0 0.0
2017-Aug-20 15:51N 48°17' W 004°35'0 0.0
2017-Aug-20 15:30N 48°17' W 004°35'0 0.4
2017-Aug-20 15:00N 48°17' W 004°35'2 4.3
2017-Aug-20 14:30N 48°16' W 004°38'4 7.1
2017-Aug-20 14:00N 48°13' W 004°40'3 6.9
2017-Aug-20 13:30N 48°10' W 004°42'3 6.3
2017-Aug-20 13:00N 48°07' W 004°44'3 6.2
2017-Aug-20 12:30N 48°04' W 004°46'52 1.9
2017-Aug-19 09:22N 47°41' W 003°36'2 3.8
2017-Aug-19 08:57N 47°41' W 003°34'2 5.2
2017-Aug-19 08:30N 47°42' W 003°31'2 3.4
2017-Aug-19 08:00N 47°42' W 003°29'2 4.1
2017-Aug-19 07:30N 47°40' W 003°27'1 1.6
2017-Aug-19 06:43N 47°39' W 003°27'0 0.0
2017-Aug-18 13:56N 47°39' W 003°27'1 3.3
2017-Aug-18 13:30N 47°40' W 003°25'3 5.2
2017-Aug-18 13:00N 47°42' W 003°23'3 5.8
2017-Aug-18 12:30N 47°44' W 003°21'0 0.9
2017-Aug-18 11:57N 47°45' W 003°21'0 0.0
2017-Aug-18 11:27N 47°45' W 003°21'0 0.0
2017-Aug-18 10:54N 47°45' W 003°21'0 0.0
2017-Aug-18 10:24N 47°45' W 003°21'0 0.0
2017-Aug-18 10:00N 47°45' W 003°21'0 0.0
2017-Aug-18 09:30N 47°45' W 003°21'  
Track history (hours):
 
Tides and Currents Weather Stations Pressure Air Temp Water Temp Dewpoint Dewpoint Depression Visibility Wind Speed Wind Dir Waves Ship Positions

Ar Chaden III

Last reported at 2017-Aug-27 20:10 UTC. Time now 2017-Sep-24 19:37 UTC.
Position N 48°36' W 002°49'.
Warning: this ship's position is 27 days out of date.

Length 12 m.

Type: Pleasure craft. MMSI: 227730430.

Date/timePositionNaut miles runAvg speedWind from/ knotsBaromVisibWave heightAir tempDewpointWater temp
2017-Aug-27 20:10N 48°36' W 002°49'0 2.1
2017-Aug-27 20:00N 48°36' W 002°49'4 5.8
2017-Aug-27 19:18N 48°40' W 002°50'3 6.1
2017-Aug-27 18:52N 48°43' W 002°52'3 6.0
2017-Aug-27 18:22N 48°45' W 002°54'3 6.2
2017-Aug-27 17:58N 48°47' W 002°56'3 5.1
2017-Aug-27 17:27N 48°49' W 002°58'2 0.1
2017-Aug-26 18:30N 48°50' W 003°01'4 5.8
2017-Aug-26 17:53N 48°54' W 003°02'  
2017-Aug-22 12:59N 48°35' W 004°46'4 7.8
2017-Aug-22 12:26N 48°31' W 004°49'3 6.6
2017-Aug-22 12:00N 48°29' W 004°49'8 7.8
2017-Aug-22 10:58N 48°21' W 004°48'2 4.9
2017-Aug-22 10:30N 48°19' W 004°45'2 4.8
2017-Aug-22 10:00N 48°18' W 004°42'3 6.1
2017-Aug-22 09:31N 48°18' W 004°37'2 3.2
2017-Aug-22 09:01N 48°17' W 004°35'0 0.1
2017-Aug-22 08:29N 48°17' W 004°35'0 0.0
2017-Aug-22 07:59N 48°17' W 004°35'0 0.0
2017-Aug-20 15:51N 48°17' W 004°35'0 0.0
2017-Aug-20 15:30N 48°17' W 004°35'0 0.4
2017-Aug-20 15:00N 48°17' W 004°35'2 4.3
2017-Aug-20 14:30N 48°16' W 004°38'4 7.1
2017-Aug-20 14:00N 48°13' W 004°40'3 6.9
2017-Aug-20 13:30N 48°10' W 004°42'3 6.3
2017-Aug-20 13:00N 48°07' W 004°44'3 6.2
2017-Aug-20 12:30N 48°04' W 004°46'52 1.9
2017-Aug-19 09:22N 47°41' W 003°36'2 3.8
2017-Aug-19 08:57N 47°41' W 003°34'2 5.2
2017-Aug-19 08:30N 47°42' W 003°31'2 3.4
2017-Aug-19 08:00N 47°42' W 003°29'2 4.1
2017-Aug-19 07:30N 47°40' W 003°27'1 1.6
2017-Aug-19 06:43N 47°39' W 003°27'0 0.0
2017-Aug-18 13:56N 47°39' W 003°27'1 3.3
2017-Aug-18 13:30N 47°40' W 003°25'3 5.2
2017-Aug-18 13:00N 47°42' W 003°23'3 5.8
2017-Aug-18 12:30N 47°44' W 003°21'0 0.9
2017-Aug-18 11:57N 47°45' W 003°21'0 0.0
2017-Aug-18 11:27N 47°45' W 003°21'0 0.0
2017-Aug-18 10:54N 47°45' W 003°21'0 0.0
2017-Aug-18 10:24N 47°45' W 003°21'0 0.0
2017-Aug-18 10:00N 47°45' W 003°21'0 0.0
2017-Aug-18 09:30N 47°45' W 003°21'  

Dump ship's entire track history